Time;durP1;ratioP1;P1;durP2;ratioP2;P2;SDS_P1;SDS_P2;PMS_P1;PMS_P2;Temp;Humidity;BMP_temperature;BMP_pressure;BME280_temperature;BME280_humidity;BME280_pressure;Samples;Min_cycle;Max_cycle;Signal;HPM_P1;HPM_P2
2022/10/12 00:01:54;;;;;;;12.63;5.53;;;;;;;;;;4949963;28;20281;-91
2022/10/12 00:04:21;;;;;;;12.57;5.40;;;;;;;;;;4956547;28;20226;-92
2022/10/12 00:06:49;;;;;;;15.57;5.80;;;;;;;;;;4954089;28;20215;-92
2022/10/12 00:09:18;;;;;;;16.63;5.17;;;;;;;;;;4954118;28;20434;-92
2022/10/12 00:11:45;;;;;;;11.63;4.03;;;;;;;;;;4953364;28;20202;-92
2022/10/12 00:14:13;;;;;;;15.90;4.80;;;;;;;;;;4952463;28;20264;-90
2022/10/12 00:16:40;;;;;;;11.97;4.77;;;;;;;;;;4955534;28;20217;-92
2022/10/12 00:19:07;;;;;;;12.20;5.03;;;;;;;;;;4952419;28;20230;-90
2022/10/12 00:21:35;;;;;;;16.17;5.80;;;;;;;;;;4954088;28;20297;-92
2022/10/12 00:24:02;;;;;;;18.43;5.60;;;;;;;;;;4948705;28;20261;-90
2022/10/12 00:26:32;;;;;;;15.90;4.80;;;;;;;;;;4953758;28;20206;-91
2022/10/12 00:29:00;;;;;;;11.57;4.97;;;;;;;;;;4950941;28;20198;-90
2022/10/12 00:31:28;;;;;;;14.47;4.57;;;;;;;;;;4951623;28;20210;-90
2022/10/12 00:33:56;;;;;;;14.50;4.37;;;;;;;;;;4953035;28;20246;-92
2022/10/12 00:36:24;;;;;;;18.20;4.90;;;;;;;;;;4949216;28;20218;-90
2022/10/12 00:38:52;;;;;;;13.83;4.73;;;;;;;;;;4956660;28;20226;-91
2022/10/12 00:41:21;;;;;;;14.00;4.30;;;;;;;;;;4950796;28;20211;-91
2022/10/12 00:43:50;;;;;;;16.57;4.87;;;;;;;;;;4955134;28;20241;-92
2022/10/12 00:46:19;;;;;;;10.73;4.67;;;;;;;;;;4951589;28;20281;-91
2022/10/12 00:48:47;;;;;;;14.73;4.50;;;;;;;;;;4947161;28;20481;-90
2022/10/12 00:51:15;;;;;;;13.90;4.97;;;;;;;;;;4950833;28;20221;-90
2022/10/12 00:53:44;;;;;;;17.37;5.07;;;;;;;;;;4945671;28;20461;-89
2022/10/12 00:56:13;;;;;;;11.13;4.30;;;;;;;;;;4951481;28;20217;-88
2022/10/12 00:58:41;;;;;;;15.03;5.07;;;;;;;;;;4948525;28;20489;-89
2022/10/12 01:01:10;;;;;;;17.27;4.80;;;;;;;;;;4952544;28;20213;-90
2022/10/12 01:03:38;;;;;;;13.53;4.27;;;;;;;;;;4947869;28;20230;-88
2022/10/12 01:06:06;;;;;;;24.60;4.57;;;;;;;;;;4947745;28;20498;-91
2022/10/12 01:08:34;;;;;;;10.50;4.60;;;;;;;;;;4947755;28;20202;-90
2022/10/12 01:11:01;;;;;;;15.53;5.80;;;;;;;;;;4951226;28;20664;-90
2022/10/12 01:13:28;;;;;;;11.13;4.20;;;;;;;;;;4947262;28;20458;-89
2022/10/12 01:15:59;;;;;;;12.03;4.30;;;;;;;;;;4947331;28;20233;-90
2022/10/12 01:18:30;;;;;;;15.83;4.03;;;;;;;;;;4948512;28;20473;-90
2022/10/12 01:21:02;;;;;;;13.10;4.07;;;;;;;;;;4948598;28;20472;-89
2022/10/12 01:23:38;;;;;;;15.83;4.20;;;;;;;;;;4962964;28;20210;-89
2022/10/12 01:26:27;;;;;;;11.23;3.57;;;;;;;;;;4949419;28;20779;-90
2022/10/12 01:29:00;;;;;;;14.20;4.27;;;;;;;;;;4948372;28;20465;-90
2022/10/12 01:31:31;;;;;;;9.87;4.10;;;;;;;;;;4947841;28;20785;-90
2022/10/12 01:34:00;;;;;;;13.87;3.87;;;;;;;;;;4949448;28;20496;-91
2022/10/12 01:36:32;;;;;;;10.50;3.83;;;;;;;;;;4949838;28;20970;-90
2022/10/12 01:39:05;;;;;;;13.73;4.50;;;;;;;;;;4945239;28;21020;-89
2022/10/12 01:41:35;;;;;;;12.90;4.23;;;;;;;;;;4949451;28;20203;-90
2022/10/12 01:44:02;;;;;;;10.30;3.63;;;;;;;;;;4946529;28;20658;-91
2022/10/12 01:46:41;;;;;;;14.60;4.47;;;;;;;;;;4949406;28;20209;-90
2022/10/12 01:49:08;;;;;;;12.17;4.23;;;;;;;;;;4948097;28;20297;-91
2022/10/12 01:51:40;;;;;;;9.07;3.93;;;;;;;;;;4954755;28;20561;-91
2022/10/12 01:54:12;;;;;;;9.07;4.00;;;;;;;;;;4954934;28;20230;-90
2022/10/12 01:56:43;;;;;;;15.00;4.30;;;;;;;;;;4948696;28;20299;-91
2022/10/12 01:59:15;;;;;;;11.17;4.13;;;;;;;;;;4952357;28;20242;-90
2022/10/12 02:01:49;;;;;;;11.17;3.73;;;;;;;;;;4948038;28;20465;-91
2022/10/12 02:04:20;;;;;;;11.57;4.20;;;;;;;;;;4944026;28;22165;-90
2022/10/12 02:06:50;;;;;;;11.40;3.67;;;;;;;;;;4949310;28;20450;-89
2022/10/12 02:09:21;;;;;;;14.37;4.63;;;;;;;;;;4944321;28;20450;-90
2022/10/12 02:11:51;;;;;;;9.97;3.73;;;;;;;;;;4947090;28;20295;-89
2022/10/12 02:14:19;;;;;;;12.67;3.87;;;;;;;;;;4945229;28;20307;-90
2022/10/12 02:16:50;;;;;;;11.73;3.80;;;;;;;;;;4949055;28;20301;-89
2022/10/12 02:19:22;;;;;;;12.13;4.53;;;;;;;;;;4948238;28;20489;-89
2022/10/12 02:21:49;;;;;;;8.43;3.27;;;;;;;;;;4947520;28;20210;-90
2022/10/12 02:24:18;;;;;;;11.10;3.43;;;;;;;;;;4946237;28;20272;-90
2022/10/12 02:26:48;;;;;;;8.90;3.67;;;;;;;;;;4947202;28;20457;-90
2022/10/12 02:29:16;;;;;;;9.73;3.80;;;;;;;;;;4946401;28;20450;-90
2022/10/12 02:31:48;;;;;;;12.83;3.83;;;;;;;;;;4947369;28;20233;-89
2022/10/12 02:34:19;;;;;;;9.90;3.60;;;;;;;;;;4947785;28;20778;-91
2022/10/12 02:36:48;;;;;;;12.37;4.13;;;;;;;;;;4951962;28;20830;-90
2022/10/12 02:39:17;;;;;;;11.17;3.83;;;;;;;;;;4947915;28;20493;-88
2022/10/12 02:41:47;;;;;;;13.00;4.63;;;;;;;;;;4949349;28;20560;-91
2022/10/12 02:44:16;;;;;;;8.70;3.50;;;;;;;;;;4948072;28;20485;-91
2022/10/12 02:46:46;;;;;;;10.47;3.57;;;;;;;;;;4950441;28;20737;-90
2022/10/12 02:49:14;;;;;;;15.50;3.80;;;;;;;;;;4947514;28;20470;-89
2022/10/12 02:51:43;;;;;;;11.57;3.60;;;;;;;;;;4950027;28;20826;-90
2022/10/12 02:54:11;;;;;;;10.30;4.07;;;;;;;;;;4948861;28;20486;-90
2022/10/12 02:56:43;;;;;;;13.07;3.67;;;;;;;;;;4949861;28;20457;-90
2022/10/12 02:59:10;;;;;;;10.50;3.63;;;;;;;;;;4954266;28;20491;-91
2022/10/12 03:01:38;;;;;;;13.07;3.70;;;;;;;;;;4953909;28;20545;-90
2022/10/12 03:04:05;;;;;;;9.87;3.97;;;;;;;;;;4949638;28;20549;-90
2022/10/12 03:06:33;;;;;;;12.83;3.50;;;;;;;;;;4951073;28;20480;-91
2022/10/12 03:09:04;;;;;;;8.70;3.57;;;;;;;;;;4957492;28;20469;-90
2022/10/12 03:11:32;;;;;;;9.57;3.37;;;;;;;;;;4951775;28;20461;-90
2022/10/12 03:14:00;;;;;;;8.57;3.00;;;;;;;;;;4953870;28;20317;-91
2022/10/12 03:16:27;;;;;;;12.03;3.50;;;;;;;;;;4951549;28;21075;-90
2022/10/12 03:18:54;;;;;;;11.60;4.87;;;;;;;;;;4950873;28;20466;-91
2022/10/12 03:21:22;;;;;;;13.50;4.77;;;;;;;;;;4949243;28;20489;-91
2022/10/12 03:23:51;;;;;;;9.57;3.57;;;;;;;;;;4952635;28;20214;-90
2022/10/12 03:26:20;;;;;;;17.27;3.70;;;;;;;;;;4948415;28;20468;-91
2022/10/12 03:28:47;;;;;;;11.30;3.50;;;;;;;;;;4954526;28;20469;-91
2022/10/12 03:31:15;;;;;;;9.20;3.07;;;;;;;;;;4953264;28;20469;-90
2022/10/12 03:33:42;;;;;;;8.67;3.40;;;;;;;;;;4953324;28;20546;-90
2022/10/12 03:36:10;;;;;;;9.17;3.03;;;;;;;;;;4952312;28;20466;-90
2022/10/12 03:38:37;;;;;;;9.57;3.43;;;;;;;;;;4954539;28;20603;-90
2022/10/12 03:41:05;;;;;;;9.80;3.40;;;;;;;;;;4950884;28;20517;-89
2022/10/12 03:43:35;;;;;;;11.47;2.90;;;;;;;;;;4949212;28;20261;-91
2022/10/12 03:46:02;;;;;;;10.77;2.80;;;;;;;;;;4947165;28;20501;-90
2022/10/12 03:48:30;;;;;;;10.47;3.00;;;;;;;;;;4948334;28;20462;-89
2022/10/12 03:50:57;;;;;;;10.30;3.63;;;;;;;;;;4947961;28;20469;-90
2022/10/12 03:53:24;;;;;;;10.70;3.50;;;;;;;;;;4954714;28;20242;-90
2022/10/12 03:55:52;;;;;;;12.93;3.43;;;;;;;;;;4945260;28;20489;-90
2022/10/12 03:58:19;;;;;;;10.03;3.80;;;;;;;;;;4948793;28;20470;-90
2022/10/12 04:00:48;;;;;;;12.93;3.43;;;;;;;;;;4949606;28;20910;-91
2022/10/12 04:03:15;;;;;;;8.13;3.30;;;;;;;;;;4951966;28;20458;-91
2022/10/12 04:05:42;;;;;;;9.17;3.00;;;;;;;;;;4952521;28;20485;-89
2022/10/12 04:08:10;;;;;;;7.23;3.13;;;;;;;;;;4945577;28;20468;-90
2022/10/12 04:10:37;;;;;;;13.93;3.90;;;;;;;;;;4945245;28;20520;-88
2022/10/12 04:13:05;;;;;;;11.57;3.90;;;;;;;;;;4950162;28;20462;-91
2022/10/12 04:15:33;;;;;;;8.43;3.30;;;;;;;;;;4947312;28;20325;-89
2022/10/12 04:18:01;;;;;;;8.30;3.30;;;;;;;;;;4947130;28;20470;-89
2022/10/12 04:20:29;;;;;;;12.83;3.77;;;;;;;;;;4948143;28;20488;-90
2022/10/12 04:22:56;;;;;;;13.57;3.13;;;;;;;;;;4945759;28;20515;-88
2022/10/12 04:25:23;;;;;;;9.20;2.80;;;;;;;;;;4947462;28;20526;-89
2022/10/12 04:27:51;;;;;;;14.43;3.27;;;;;;;;;;4948909;28;20689;-89
2022/10/12 04:30:18;;;;;;;10.27;3.13;;;;;;;;;;4947870;28;20591;-88
2022/10/12 04:32:46;;;;;;;7.27;3.33;;;;;;;;;;4950926;28;20472;-88
2022/10/12 04:35:15;;;;;;;9.17;3.00;;;;;;;;;;4946001;28;20493;-89
2022/10/12 04:37:42;;;;;;;6.63;2.80;;;;;;;;;;4945919;28;20476;-89
2022/10/12 04:40:10;;;;;;;9.20;3.10;;;;;;;;;;4949256;28;20569;-90
2022/10/12 04:42:37;;;;;;;8.43;3.40;;;;;;;;;;4947529;28;20199;-89
2022/10/12 04:45:05;;;;;;;14.17;3.90;;;;;;;;;;4948302;28;20496;-89
2022/10/12 04:47:34;;;;;;;11.40;3.37;;;;;;;;;;4947242;28;20577;-89
2022/10/12 04:50:02;;;;;;;10.53;4.13;;;;;;;;;;4946899;28;20542;-90
2022/10/12 04:52:31;;;;;;;13.80;4.13;;;;;;;;;;4949219;28;20477;-87
2022/10/12 04:54:58;;;;;;;17.37;4.20;;;;;;;;;;4949068;28;21042;-89
2022/10/12 04:57:25;;;;;;;19.73;4.37;;;;;;;;;;4947429;28;20199;-91
2022/10/12 04:59:53;;;;;;;16.37;4.80;;;;;;;;;;4943939;28;20480;-90
2022/10/12 05:02:20;;;;;;;14.23;4.50;;;;;;;;;;4948057;28;20506;-88
2022/10/12 05:04:48;;;;;;;9.80;3.67;;;;;;;;;;4929831;28;20487;-89
2022/10/12 05:07:16;;;;;;;12.37;3.77;;;;;;;;;;4947227;28;21063;-88
2022/10/12 05:09:45;;;;;;;10.10;3.67;;;;;;;;;;4949351;28;20457;-88
2022/10/12 05:12:12;;;;;;;12.67;3.77;;;;;;;;;;4946870;28;20466;-90
2022/10/12 05:14:39;;;;;;;11.53;4.03;;;;;;;;;;4949432;28;20562;-90
2022/10/12 05:17:07;;;;;;;13.40;3.93;;;;;;;;;;4946290;28;20478;-90
2022/10/12 05:19:34;;;;;;;9.40;3.60;;;;;;;;;;4947804;28;20480;-89
2022/10/12 05:22:01;;;;;;;12.57;3.90;;;;;;;;;;4948314;28;21265;-89
2022/10/12 05:24:29;;;;;;;9.80;3.87;;;;;;;;;;4943971;28;20230;-88
2022/10/12 05:26:57;;;;;;;11.87;3.73;;;;;;;;;;4929244;28;20470;-89
2022/10/12 05:29:25;;;;;;;12.50;3.70;;;;;;;;;;4947684;28;20847;-89
2022/10/12 05:31:52;;;;;;;20.43;3.90;;;;;;;;;;4943962;28;20461;-89
2022/10/12 05:34:20;;;;;;;11.13;3.90;;;;;;;;;;4947277;28;20897;-88
2022/10/12 05:36:47;;;;;;;13.77;3.60;;;;;;;;;;4948170;28;20564;-89
2022/10/12 05:39:15;;;;;;;10.13;3.37;;;;;;;;;;4944075;28;20991;-90
2022/10/12 05:41:42;;;;;;;8.10;2.97;;;;;;;;;;4944302;28;20548;-89
2022/10/12 05:44:11;;;;;;;10.10;3.37;;;;;;;;;;4943070;28;20486;-88
2022/10/12 05:46:39;;;;;;;11.27;3.57;;;;;;;;;;4961975;28;20963;-88
2022/10/12 05:49:07;;;;;;;17.27;4.40;;;;;;;;;;4948317;28;20458;-91
2022/10/12 05:51:34;;;;;;;14.67;4.97;;;;;;;;;;4946412;28;20552;-89
2022/10/12 05:54:02;;;;;;;12.37;4.73;;;;;;;;;;4947820;28;20485;-88
2022/10/12 05:56:29;;;;;;;14.37;4.90;;;;;;;;;;4924893;28;20455;-89
2022/10/12 05:58:57;;;;;;;19.63;4.70;;;;;;;;;;4946290;28;20217;-89
2022/10/12 06:01:26;;;;;;;14.67;5.20;;;;;;;;;;4946410;28;20719;-89
2022/10/12 06:03:53;;;;;;;12.27;4.83;;;;;;;;;;4945083;28;20468;-89
2022/10/12 06:06:21;;;;;;;13.97;4.93;;;;;;;;;;4944529;28;20462;-88
2022/10/12 06:08:48;;;;;;;11.23;4.33;;;;;;;;;;4945374;28;20476;-90
2022/10/12 06:11:16;;;;;;;12.13;4.00;;;;;;;;;;4945281;28;20469;-91
2022/10/12 06:13:43;;;;;;;15.20;4.07;;;;;;;;;;4947077;28;20469;-90
2022/10/12 06:16:11;;;;;;;14.13;3.70;;;;;;;;;;4947913;28;20320;-91
2022/10/12 06:18:40;;;;;;;11.17;3.90;;;;;;;;;;4949570;28;20206;-90
2022/10/12 06:21:07;;;;;;;8.37;3.67;;;;;;;;;;4946948;28;20497;-90
2022/10/12 06:23:35;;;;;;;12.60;4.10;;;;;;;;;;4947327;28;20462;-91
2022/10/12 06:26:02;;;;;;;15.07;3.97;;;;;;;;;;4951790;28;20521;-92
2022/10/12 06:28:30;;;;;;;19.17;4.53;;;;;;;;;;4946509;28;20468;-89
2022/10/12 06:30:58;;;;;;;13.53;5.80;;;;;;;;;;4951314;28;20468;-90
2022/10/12 06:33:27;;;;;;;17.23;5.90;;;;;;;;;;4946404;28;20454;-91
2022/10/12 06:35:56;;;;;;;14.67;5.43;;;;;;;;;;4950396;28;20548;-90
2022/10/12 06:38:24;;;;;;;16.00;5.03;;;;;;;;;;4951207;28;20417;-90
2022/10/12 06:40:52;;;;;;;16.20;5.30;;;;;;;;;;4946674;28;20219;-91
2022/10/12 06:43:21;;;;;;;14.57;5.17;;;;;;;;;;4952101;28;20472;-91
2022/10/12 06:45:50;;;;;;;22.23;5.60;;;;;;;;;;4946823;28;20234;-90
2022/10/12 06:48:17;;;;;;;21.30;7.63;;;;;;;;;;4945880;28;20210;-92
2022/10/12 06:50:45;;;;;;;17.97;7.53;;;;;;;;;;4948637;28;20234;-89
2022/10/12 06:53:14;;;;;;;18.13;7.63;;;;;;;;;;4944574;28;20224;-89
2022/10/12 06:55:41;;;;;;;29.40;11.33;;;;;;;;;;4951847;28;20225;-90
2022/10/12 06:58:09;;;;;;;24.27;8.67;;;;;;;;;;4948006;28;20218;-87
2022/10/12 07:00:36;;;;;;;16.10;8.30;;;;;;;;;;4947325;28;20213;-88
2022/10/12 07:03:05;;;;;;;16.43;7.80;;;;;;;;;;4951332;28;20210;-91
2022/10/12 07:05:33;;;;;;;21.57;7.60;;;;;;;;;;4954867;28;20251;-90
2022/10/12 07:08:00;;;;;;;18.27;7.07;;;;;;;;;;4951967;28;20210;-92
2022/10/12 07:10:30;;;;;;;15.47;6.37;;;;;;;;;;4952731;28;20203;-89
2022/10/12 07:12:57;;;;;;;15.27;6.40;;;;;;;;;;4954292;28;20214;-92
2022/10/12 07:15:25;;;;;;;14.10;7.00;;;;;;;;;;4948893;28;20249;-91
2022/10/12 07:17:53;;;;;;;16.87;7.53;;;;;;;;;;4949625;28;20705;-91
2022/10/12 07:20:20;;;;;;;25.37;8.60;;;;;;;;;;4949139;28;20323;-90
2022/10/12 07:22:48;;;;;;;17.57;7.10;;;;;;;;;;4950627;28;20218;-91
2022/10/12 07:25:15;;;;;;;16.80;6.50;;;;;;;;;;4948404;28;20240;-90
2022/10/12 07:27:47;;;;;;;12.60;6.30;;;;;;;;;;4952813;28;20202;-87
2022/10/12 07:30:15;;;;;;;11.77;6.37;;;;;;;;;;4947430;28;20265;-88
2022/10/12 07:32:43;;;;;;;14.03;5.57;;;;;;;;;;4950512;28;20210;-89
2022/10/12 07:35:11;;;;;;;19.63;6.50;;;;;;;;;;4953138;28;20258;-89
2022/10/12 07:37:39;;;;;;;18.70;6.60;;;;;;;;;;4947617;28;20211;-89
2022/10/12 07:40:07;;;;;;;11.83;5.53;;;;;;;;;;4950609;28;20305;-89
2022/10/12 07:42:34;;;;;;;13.47;4.67;;;;;;;;;;4945859;28;20241;-90
2022/10/12 07:45:03;;;;;;;14.60;4.60;;;;;;;;;;4949971;28;20257;-90
2022/10/12 07:47:31;;;;;;;10.77;4.70;;;;;;;;;;4971827;28;20217;-91
2022/10/12 07:49:58;;;;;;;12.37;4.77;;;;;;;;;;4986658;28;20241;-92
2022/10/12 07:52:29;;;;;;;12.27;4.70;;;;;;;;;;4973386;28;20206;-93
2022/10/12 07:54:57;;;;;;;18.50;4.57;;;;;;;;;;4980120;28;20227;-92
2022/10/12 07:57:25;;;;;;;10.93;4.53;;;;;;;;;;4981809;28;20214;-92
2022/10/12 07:59:52;;;;;;;11.30;4.00;;;;;;;;;;4986035;28;20210;-91
2022/10/12 08:02:21;;;;;;;10.37;4.03;;;;;;;;;;4981945;28;20225;-93
2022/10/12 08:04:49;;;;;;;10.10;3.80;;;;;;;;;;4979744;28;20207;-92
2022/10/12 08:07:17;;;;;;;9.67;3.50;;;;;;;;;;4981227;28;20209;-93
2022/10/12 08:09:44;;;;;;;10.03;3.97;;;;;;;;;;4979500;28;20230;-92
2022/10/12 08:12:12;;;;;;;12.63;3.33;;;;;;;;;;4979493;28;20206;-92
2022/10/12 08:14:40;;;;;;;10.10;3.23;;;;;;;;;;4981404;28;20221;-92
2022/10/12 08:17:08;;;;;;;9.80;3.33;;;;;;;;;;4974956;28;20270;-92
2022/10/12 08:19:37;;;;;;;8.37;3.83;;;;;;;;;;4968443;28;20207;-91
2022/10/12 08:22:05;;;;;;;11.37;3.40;;;;;;;;;;4971323;28;20229;-91
2022/10/12 08:24:33;;;;;;;9.73;3.33;;;;;;;;;;4971504;28;20257;-92
2022/10/12 08:27:00;;;;;;;10.33;3.23;;;;;;;;;;4969380;28;20202;-91
2022/10/12 08:29:28;;;;;;;10.63;3.33;;;;;;;;;;4947997;29;20233;-91
2022/10/12 08:31:56;;;;;;;10.70;3.73;;;;;;;;;;4963335;28;20203;-91
2022/10/12 08:37:06;;;;;;;11.13;3.37;;;;;;;;;;4968002;28;20244;-92
2022/10/12 08:39:33;;;;;;;18.93;3.50;;;;;;;;;;4968531;28;20210;-90
2022/10/12 08:42:08;;;;;;;10.30;3.73;;;;;;;;;;4965714;28;20313;-90
2022/10/12 08:44:43;;;;;;;12.93;3.77;;;;;;;;;;4949546;28;20225;-89
2022/10/12 08:47:12;;;;;;;12.90;3.77;;;;;;;;;;4949354;28;20248;-92
2022/10/12 08:49:40;;;;;;;8.90;3.10;;;;;;;;;;4952520;28;20207;-91
2022/10/12 08:52:14;;;;;;;12.00;3.43;;;;;;;;;;4960279;28;20577;-91
2022/10/12 08:54:43;;;;;;;9.27;2.90;;;;;;;;;;4957692;28;20299;-91
2022/10/12 08:59:57;;;;;;;9.53;3.37;;;;;;;;;;4953254;28;20214;-92
2022/10/12 09:02:37;;;;;;;11.63;3.50;;;;;;;;;;4965121;28;20226;-91
2022/10/12 09:05:08;;;;;;;14.60;3.73;;;;;;;;;;4957837;28;20293;-92
2022/10/12 09:07:40;;;;;;;14.77;3.63;;;;;;;;;;4957138;28;20234;-92
2022/10/12 09:10:14;;;;;;;12.70;3.40;;;;;;;;;;4953986;28;20218;-92
2022/10/12 09:12:46;;;;;;;8.73;3.10;;;;;;;;;;4948058;28;20201;-92
2022/10/12 09:15:18;;;;;;;19.80;3.50;;;;;;;;;;4953757;28;20708;-92
2022/10/12 09:17:47;;;;;;;13.17;3.27;;;;;;;;;;4950060;28;20221;-91
2022/10/12 09:20:18;;;;;;;15.17;3.60;;;;;;;;;;4946392;28;20473;-92
2022/10/12 09:22:49;;;;;;;8.57;3.00;;;;;;;;;;4945745;28;20644;-91
2022/10/12 09:25:17;;;;;;;8.03;2.60;;;;;;;;;;4942758;28;20700;-92
2022/10/12 09:27:46;;;;;;;9.67;3.00;;;;;;;;;;4944098;28;20206;-90
2022/10/12 09:30:14;;;;;;;5.30;2.73;;;;;;;;;;4945857;28;20210;-89
2022/10/12 09:32:47;;;;;;;10.80;3.17;;;;;;;;;;4943107;28;20204;-92
2022/10/12 09:35:15;;;;;;;6.50;2.83;;;;;;;;;;4943422;28;20350;-91
2022/10/12 09:37:43;;;;;;;10.63;2.90;;;;;;;;;;4948689;28;20216;-90
2022/10/12 09:40:18;;;;;;;6.70;2.50;;;;;;;;;;4948317;28;20208;-89
2022/10/12 09:42:46;;;;;;;8.83;3.03;;;;;;;;;;4943033;28;20218;-91
2022/10/12 09:45:18;;;;;;;9.50;2.70;;;;;;;;;;4944371;28;20237;-90
2022/10/12 09:48:08;;;;;;;13.20;2.80;;;;;;;;;;4944549;28;20209;-89
2022/10/12 09:50:40;;;;;;;7.53;2.53;;;;;;;;;;4949271;28;20213;-91
2022/10/12 09:53:14;;;;;;;6.93;2.80;;;;;;;;;;4944684;28;20199;-90
2022/10/12 09:55:52;;;;;;;9.27;3.00;;;;;;;;;;4948098;28;20226;-89
2022/10/12 09:58:21;;;;;;;17.63;2.90;;;;;;;;;;4947500;28;20301;-90
2022/10/12 10:01:09;;;;;;;70.77;6.70;;;;;;;;;;4944519;28;20214;-89
2022/10/12 10:03:37;;;;;;;14.40;2.87;;;;;;;;;;4950520;28;20341;-90
2022/10/12 10:06:05;;;;;;;7.67;2.40;;;;;;;;;;4948719;28;20238;-90
2022/10/12 10:08:39;;;;;;;12.23;2.73;;;;;;;;;;4945107;28;20213;-90
2022/10/12 10:11:14;;;;;;;8.83;2.63;;;;;;;;;;4941698;28;20218;-90
2022/10/12 10:13:46;;;;;;;9.30;3.50;;;;;;;;;;4942412;28;20198;-89
2022/10/12 10:16:13;;;;;;;9.13;2.87;;;;;;;;;;4949048;28;20207;-89
2022/10/12 10:18:42;;;;;;;13.50;2.97;;;;;;;;;;4948856;28;20205;-89
2022/10/12 10:21:10;;;;;;;17.63;3.23;;;;;;;;;;4941104;28;20215;-90
2022/10/12 10:23:39;;;;;;;10.33;2.87;;;;;;;;;;4940973;28;20230;-90
2022/10/12 10:26:09;;;;;;;8.00;2.80;;;;;;;;;;4944680;28;20205;-89
2022/10/12 10:28:38;;;;;;;18.93;3.00;;;;;;;;;;4950234;28;20297;-90
2022/10/12 10:31:06;;;;;;;9.63;2.60;;;;;;;;;;4948919;28;20210;-90
2022/10/12 10:33:35;;;;;;;14.27;2.57;;;;;;;;;;4951033;28;20198;-90
2022/10/12 10:36:05;;;;;;;5.03;2.20;;;;;;;;;;4948276;28;20230;-89
2022/10/12 10:38:34;;;;;;;21.90;3.23;;;;;;;;;;4947443;28;20238;-90
2022/10/12 10:41:03;;;;;;;11.13;2.93;;;;;;;;;;4943501;28;20210;-90
2022/10/12 10:43:32;;;;;;;17.80;2.90;;;;;;;;;;4946929;28;20229;-91
2022/10/12 10:46:01;;;;;;;16.10;3.33;;;;;;;;;;4947187;28;20226;-90
2022/10/12 10:48:30;;;;;;;9.67;2.57;;;;;;;;;;4948815;28;20206;-90
2022/10/12 10:51:00;;;;;;;9.23;2.40;;;;;;;;;;4947397;28;20206;-91
2022/10/12 10:53:28;;;;;;;12.60;2.53;;;;;;;;;;4947805;28;20221;-88
2022/10/12 10:56:00;;;;;;;12.20;2.70;;;;;;;;;;4944881;28;20234;-89
2022/10/12 10:58:31;;;;;;;10.53;2.57;;;;;;;;;;4945526;28;20751;-90
2022/10/12 11:01:02;;;;;;;9.63;2.33;;;;;;;;;;4946536;28;20666;-89
2022/10/12 11:03:32;;;;;;;9.43;2.50;;;;;;;;;;4942764;28;20218;-92
2022/10/12 11:06:04;;;;;;;9.87;2.17;;;;;;;;;;4948734;28;20634;-90
2022/10/12 11:08:31;;;;;;;6.53;2.30;;;;;;;;;;4943459;28;20555;-90
2022/10/12 11:11:00;;;;;;;15.70;3.20;;;;;;;;;;4946084;28;20606;-89
2022/10/12 11:13:32;;;;;;;6.73;2.20;;;;;;;;;;4943849;28;20209;-88
2022/10/12 11:16:03;;;;;;;6.33;2.30;;;;;;;;;;4944297;28;20709;-87
2022/10/12 11:18:35;;;;;;;9.40;2.50;;;;;;;;;;4945125;28;20242;-87
2022/10/12 11:21:04;;;;;;;14.70;2.33;;;;;;;;;;4940135;28;20206;-86
2022/10/12 11:23:35;;;;;;;10.57;3.30;;;;;;;;;;4943222;28;20327;-87
2022/10/12 11:26:07;;;;;;;9.33;2.03;;;;;;;;;;4935999;28;20222;-85
2022/10/12 11:28:36;;;;;;;7.90;2.03;;;;;;;;;;4940440;28;20215;-86
2022/10/12 11:31:06;;;;;;;7.33;2.07;;;;;;;;;;4941559;28;20218;-86
2022/10/12 11:33:37;;;;;;;11.87;2.70;;;;;;;;;;4939739;28;20253;-85
2022/10/12 11:36:07;;;;;;;8.00;2.17;;;;;;;;;;4943409;28;20622;-88
2022/10/12 11:38:38;;;;;;;10.07;2.70;;;;;;;;;;4942427;28;20214;-90
2022/10/12 11:41:08;;;;;;;13.73;2.33;;;;;;;;;;4934587;28;20221;-86
2022/10/12 11:43:38;;;;;;;8.57;2.50;;;;;;;;;;4941415;28;20325;-88
2022/10/12 11:46:08;;;;;;;6.10;2.30;;;;;;;;;;4945907;28;22185;-88
2022/10/12 11:48:37;;;;;;;14.20;2.63;;;;;;;;;;4946595;28;20211;-89
2022/10/12 11:51:05;;;;;;;10.10;2.60;;;;;;;;;;4944961;28;20217;-88
2022/10/12 11:53:35;;;;;;;10.37;3.13;;;;;;;;;;4941036;28;20641;-89
2022/10/12 11:56:08;;;;;;;10.43;2.90;;;;;;;;;;4945240;28;20317;-91
2022/10/12 11:58:38;;;;;;;9.30;2.50;;;;;;;;;;4950646;28;20214;-90
2022/10/12 12:01:23;;;;;;;11.17;2.73;;;;;;;;;;4944926;28;20204;-89
2022/10/12 12:04:12;;;;;;;8.60;2.40;;;;;;;;;;4948232;28;20233;-91
2022/10/12 12:06:48;;;;;;;9.27;2.27;;;;;;;;;;4945851;28;20199;-90
2022/10/12 12:09:21;;;;;;;9.70;2.37;;;;;;;;;;4952818;28;20214;-90
2022/10/12 12:11:48;;;;;;;11.10;2.37;;;;;;;;;;4956791;28;20206;-89
2022/10/12 12:14:34;;;;;;;8.50;2.40;;;;;;;;;;4934014;28;20221;-89
2022/10/12 12:17:15;;;;;;;5.97;2.10;;;;;;;;;;4943644;28;20240;-91
2022/10/12 12:19:43;;;;;;;15.37;2.40;;;;;;;;;;4946968;28;20202;-89
2022/10/12 12:22:27;;;;;;;6.93;2.57;;;;;;;;;;4941601;28;20203;-89
2022/10/12 12:25:03;;;;;;;7.20;2.70;;;;;;;;;;4944608;28;20337;-90
2022/10/12 12:27:32;;;;;;;7.97;2.40;;;;;;;;;;4945522;28;20336;-90
2022/10/12 12:30:00;;;;;;;10.60;2.30;;;;;;;;;;4942943;28;20292;-89
2022/10/12 12:32:40;;;;;;;9.37;2.60;;;;;;;;;;4951237;28;20293;-90
2022/10/12 12:35:18;;;;;;;8.30;2.30;;;;;;;;;;4946814;28;20234;-90
2022/10/12 12:37:48;;;;;;;5.97;2.10;;;;;;;;;;4948408;28;20217;-91
2022/10/12 12:40:21;;;;;;;10.37;2.63;;;;;;;;;;4952574;28;20211;-91
2022/10/12 12:42:49;;;;;;;5.13;2.40;;;;;;;;;;4951943;28;20312;-91
2022/10/12 12:45:40;;;;;;;10.47;2.60;;;;;;;;;;4945783;28;20751;-92
2022/10/12 12:48:09;;;;;;;10.43;2.43;;;;;;;;;;4951656;28;20297;-92
2022/10/12 12:50:37;;;;;;;7.63;2.43;;;;;;;;;;4947875;28;20220;-93
2022/10/12 12:53:08;;;;;;;10.83;2.70;;;;;;;;;;4953878;28;20198;-92
2022/10/12 12:55:42;;;;;;;11.97;3.20;;;;;;;;;;4951066;28;20225;-92
2022/10/12 12:58:19;;;;;;;11.33;3.17;;;;;;;;;;4944110;28;20205;-91
2022/10/12 13:00:51;;;;;;;8.07;2.90;;;;;;;;;;4951989;28;20210;-91
2022/10/12 13:03:29;;;;;;;5.13;2.60;;;;;;;;;;4944396;28;20243;-91
2022/10/12 13:06:11;;;;;;;8.70;2.50;;;;;;;;;;4947492;28;20222;-91
2022/10/12 13:08:46;;;;;;;16.17;2.93;;;;;;;;;;4943186;28;20198;-91
2022/10/12 13:11:43;;;;;;;11.83;3.07;;;;;;;;;;4942893;28;20524;-91
2022/10/12 13:14:19;;;;;;;8.20;2.67;;;;;;;;;;4905313;29;20323;-89
2022/10/12 13:16:53;;;;;;;10.23;2.67;;;;;;;;;;4936813;28;20203;-93
2022/10/12 13:19:27;;;;;;;6.10;2.87;;;;;;;;;;4953153;28;20210;-92
2022/10/12 13:21:56;;;;;;;9.60;2.33;;;;;;;;;;4945011;28;20297;-93
2022/10/12 13:24:26;;;;;;;9.83;2.83;;;;;;;;;;4948024;28;20249;-92
2022/10/12 13:27:01;;;;;;;11.30;2.83;;;;;;;;;;4947242;28;20199;-93
2022/10/12 13:29:35;;;;;;;5.73;2.80;;;;;;;;;;4948204;28;20209;-92
2022/10/12 13:32:04;;;;;;;9.77;2.77;;;;;;;;;;4948369;28;20658;-93
2022/10/12 13:34:37;;;;;;;11.37;3.00;;;;;;;;;;4934931;28;20226;-93
2022/10/12 13:37:06;;;;;;;8.77;2.87;;;;;;;;;;4949317;28;20206;-93
2022/10/12 13:39:42;;;;;;;11.73;2.70;;;;;;;;;;4955113;28;20206;-93
2022/10/12 13:42:22;;;;;;;4.10;2.30;;;;;;;;;;4950228;28;20206;-90
2022/10/12 13:44:50;;;;;;;11.57;2.97;;;;;;;;;;4950965;28;20237;-92
2022/10/12 13:47:22;;;;;;;13.23;3.17;;;;;;;;;;4950803;28;20210;-92
2022/10/12 13:49:50;;;;;;;8.27;2.70;;;;;;;;;;4947558;28;20210;-92
2022/10/12 13:52:22;;;;;;;5.80;2.40;;;;;;;;;;4950623;28;20975;-91
2022/10/12 13:54:54;;;;;;;10.77;2.70;;;;;;;;;;4949865;28;20233;-92
2022/10/12 13:57:24;;;;;;;7.60;3.40;;;;;;;;;;4944137;28;20265;-87
2022/10/12 13:59:55;;;;;;;13.13;2.67;;;;;;;;;;4941630;28;20240;-90
2022/10/12 14:02:23;;;;;;;8.87;2.70;;;;;;;;;;4945534;28;20217;-93
2022/10/12 14:04:53;;;;;;;16.90;2.73;;;;;;;;;;4946746;28;20232;-89
2022/10/12 14:07:22;;;;;;;9.67;3.50;;;;;;;;;;4949908;28;20215;-90
2022/10/12 14:09:53;;;;;;;9.47;2.70;;;;;;;;;;4944017;28;20198;-89
2022/10/12 14:12:21;;;;;;;13.90;2.73;;;;;;;;;;4946051;28;20218;-89
2022/10/12 14:14:49;;;;;;;10.17;2.77;;;;;;;;;;4944463;28;20223;-91
2022/10/12 14:17:16;;;;;;;17.27;2.97;;;;;;;;;;4945633;28;20246;-88
2022/10/12 14:19:45;;;;;;;6.63;3.07;;;;;;;;;;4937920;28;20299;-92
2022/10/12 14:22:13;;;;;;;13.27;2.90;;;;;;;;;;4940658;28;20297;-91
2022/10/12 14:24:40;;;;;;;13.20;2.80;;;;;;;;;;4942800;28;20602;-90
2022/10/12 14:27:19;;;;;;;10.33;2.83;;;;;;;;;;4944261;28;20259;-90
2022/10/12 14:29:47;;;;;;;12.23;2.83;;;;;;;;;;4944525;28;20312;-86
2022/10/12 14:32:34;;;;;;;6.53;2.93;;;;;;;;;;4943862;28;20482;-91
2022/10/12 14:35:10;;;;;;;12.33;2.90;;;;;;;;;;4949596;28;20234;-93
2022/10/12 14:37:37;;;;;;;11.33;3.23;;;;;;;;;;4953375;28;20213;-93
2022/10/12 14:40:20;;;;;;;13.83;2.80;;;;;;;;;;4952715;28;20214;-92
2022/10/12 14:42:58;;;;;;;10.33;2.73;;;;;;;;;;4953848;28;20202;-90
2022/10/12 14:45:26;;;;;;;11.73;3.00;;;;;;;;;;4943782;28;20597;-92
2022/10/12 14:47:55;;;;;;;15.00;3.30;;;;;;;;;;4943495;28;20213;-92
2022/10/12 14:50:23;;;;;;;7.93;3.17;;;;;;;;;;4945851;28;20293;-94
2022/10/12 14:52:52;;;;;;;8.63;2.97;;;;;;;;;;4954795;28;20278;-92
2022/10/12 15:26:29;;;;;;;10.73;3.83;;;;;;;;;;4977599;28;20296;-86